sensor_id;sensor_type;location;lat;lon;timestamp;P1;durP1;ratioP1;P2;durP2;ratioP2
81934;SDS011;71405;47.674;-2.050;2023-11-19T00:00:15;4.05;;;1.73;;
81934;SDS011;71405;47.674;-2.050;2023-11-19T00:02:41;3.60;;;1.60;;
81934;SDS011;71405;47.674;-2.050;2023-11-19T00:05:07;2.55;;;1.50;;
81934;SDS011;71405;47.674;-2.050;2023-11-19T00:07:37;4.13;;;1.83;;
81934;SDS011;71405;47.674;-2.050;2023-11-19T00:10:10;4.55;;;1.83;;
81934;SDS011;71405;47.674;-2.050;2023-11-19T00:12:40;3.28;;;1.80;;
81934;SDS011;71405;47.674;-2.050;2023-11-19T00:15:07;3.17;;;1.60;;
81934;SDS011;71405;47.674;-2.050;2023-11-19T00:17:45;4.28;;;1.90;;
81934;SDS011;71405;47.674;-2.050;2023-11-19T00:20:13;3.90;;;1.58;;
81934;SDS011;71405;47.674;-2.050;2023-11-19T00:22:40;2.45;;;1.48;;
81934;SDS011;71405;47.674;-2.050;2023-11-19T00:25:07;4.13;;;1.55;;
81934;SDS011;71405;47.674;-2.050;2023-11-19T00:27:36;21.48;;;19.23;;
81934;SDS011;71405;47.674;-2.050;2023-11-19T00:30:05;12.95;;;10.95;;
81934;SDS011;71405;47.674;-2.050;2023-11-19T00:32:34;14.57;;;12.20;;
81934;SDS011;71405;47.674;-2.050;2023-11-19T00:35:01;12.18;;;10.88;;
81934;SDS011;71405;47.674;-2.050;2023-11-19T00:37:27;11.68;;;10.00;;
81934;SDS011;71405;47.674;-2.050;2023-11-19T00:39:53;9.70;;;7.28;;
81934;SDS011;71405;47.674;-2.050;2023-11-19T00:42:21;10.40;;;7.88;;
81934;SDS011;71405;47.674;-2.050;2023-11-19T00:44:47;10.55;;;7.70;;
81934;SDS011;71405;47.674;-2.050;2023-11-19T00:47:12;9.00;;;6.47;;
81934;SDS011;71405;47.674;-2.050;2023-11-19T00:49:38;9.60;;;6.70;;
81934;SDS011;71405;47.674;-2.050;2023-11-19T00:52:04;8.93;;;6.22;;
81934;SDS011;71405;47.674;-2.050;2023-11-19T00:54:31;8.88;;;6.00;;
81934;SDS011;71405;47.674;-2.050;2023-11-19T00:56:57;8.60;;;5.68;;
81934;SDS011;71405;47.674;-2.050;2023-11-19T00:59:23;9.32;;;5.68;;
81934;SDS011;71405;47.674;-2.050;2023-11-19T01:01:48;8.93;;;5.53;;
81934;SDS011;71405;47.674;-2.050;2023-11-19T01:04:16;9.10;;;5.57;;
81934;SDS011;71405;47.674;-2.050;2023-11-19T01:06:41;7.85;;;5.03;;
81934;SDS011;71405;47.674;-2.050;2023-11-19T01:09:07;7.80;;;5.03;;
81934;SDS011;71405;47.674;-2.050;2023-11-19T01:11:34;7.40;;;4.28;;
81934;SDS011;71405;47.674;-2.050;2023-11-19T01:13:59;7.90;;;4.22;;
81934;SDS011;71405;47.674;-2.050;2023-11-19T01:16:25;8.35;;;4.25;;
81934;SDS011;71405;47.674;-2.050;2023-11-19T01:18:51;7.60;;;4.25;;
81934;SDS011;71405;47.674;-2.050;2023-11-19T01:21:17;7.95;;;4.63;;
81934;SDS011;71405;47.674;-2.050;2023-11-19T01:23:43;7.38;;;4.25;;
81934;SDS011;71405;47.674;-2.050;2023-11-19T01:26:09;6.93;;;4.07;;
81934;SDS011;71405;47.674;-2.050;2023-11-19T01:28:36;7.22;;;4.20;;
81934;SDS011;71405;47.674;-2.050;2023-11-19T01:31:01;7.45;;;3.80;;
81934;SDS011;71405;47.674;-2.050;2023-11-19T01:33:28;7.25;;;3.78;;
81934;SDS011;71405;47.674;-2.050;2023-11-19T01:35:54;6.38;;;3.53;;
81934;SDS011;71405;47.674;-2.050;2023-11-19T01:38:23;6.75;;;3.80;;
81934;SDS011;71405;47.674;-2.050;2023-11-19T01:40:49;7.15;;;3.47;;
81934;SDS011;71405;47.674;-2.050;2023-11-19T01:43:31;6.68;;;3.65;;
81934;SDS011;71405;47.674;-2.050;2023-11-19T01:46:04;6.82;;;3.65;;
81934;SDS011;71405;47.674;-2.050;2023-11-19T01:48:31;6.55;;;3.38;;
81934;SDS011;71405;47.674;-2.050;2023-11-19T01:50:58;6.30;;;3.45;;
81934;SDS011;71405;47.674;-2.050;2023-11-19T01:53:27;6.93;;;3.35;;
81934;SDS011;71405;47.674;-2.050;2023-11-19T01:55:54;6.05;;;3.03;;
81934;SDS011;71405;47.674;-2.050;2023-11-19T01:58:20;5.68;;;3.00;;
81934;SDS011;71405;47.674;-2.050;2023-11-19T02:00:47;6.85;;;3.50;;
81934;SDS011;71405;47.674;-2.050;2023-11-19T02:03:14;6.60;;;3.30;;
81934;SDS011;71405;47.674;-2.050;2023-11-19T02:05:40;7.15;;;3.40;;
81934;SDS011;71405;47.674;-2.050;2023-11-19T02:08:06;7.25;;;3.60;;
81934;SDS011;71405;47.674;-2.050;2023-11-19T02:10:32;6.32;;;3.30;;
81934;SDS011;71405;47.674;-2.050;2023-11-19T02:12:58;7.15;;;3.30;;
81934;SDS011;71405;47.674;-2.050;2023-11-19T02:15:24;7.10;;;3.53;;
81934;SDS011;71405;47.674;-2.050;2023-11-19T02:17:50;6.90;;;3.33;;
81934;SDS011;71405;47.674;-2.050;2023-11-19T02:20:16;6.05;;;2.92;;
81934;SDS011;71405;47.674;-2.050;2023-11-19T02:22:44;6.07;;;3.03;;
81934;SDS011;71405;47.674;-2.050;2023-11-19T02:25:25;5.15;;;2.90;;
81934;SDS011;71405;47.674;-2.050;2023-11-19T02:28:01;6.13;;;3.25;;
81934;SDS011;71405;47.674;-2.050;2023-11-19T02:30:28;5.22;;;2.72;;
81934;SDS011;71405;47.674;-2.050;2023-11-19T02:32:57;4.88;;;2.58;;
81934;SDS011;71405;47.674;-2.050;2023-11-19T02:37:51;6.00;;;2.83;;
81934;SDS011;71405;47.674;-2.050;2023-11-19T02:40:17;5.35;;;2.78;;
81934;SDS011;71405;47.674;-2.050;2023-11-19T02:42:43;6.10;;;2.40;;
81934;SDS011;71405;47.674;-2.050;2023-11-19T02:45:09;4.78;;;2.55;;
81934;SDS011;71405;47.674;-2.050;2023-11-19T02:47:42;6.65;;;3.00;;
81934;SDS011;71405;47.674;-2.050;2023-11-19T02:50:09;5.22;;;2.55;;
81934;SDS011;71405;47.674;-2.050;2023-11-19T02:52:42;6.53;;;2.88;;
81934;SDS011;71405;47.674;-2.050;2023-11-19T02:55:10;6.78;;;3.00;;
81934;SDS011;71405;47.674;-2.050;2023-11-19T02:57:38;6.00;;;2.58;;
81934;SDS011;71405;47.674;-2.050;2023-11-19T03:00:11;5.70;;;2.42;;
81934;SDS011;71405;47.674;-2.050;2023-11-19T03:02:39;5.82;;;2.70;;
81934;SDS011;71405;47.674;-2.050;2023-11-19T03:05:11;5.18;;;2.40;;
81934;SDS011;71405;47.674;-2.050;2023-11-19T03:07:39;5.35;;;2.42;;
81934;SDS011;71405;47.674;-2.050;2023-11-19T03:10:08;5.10;;;2.30;;
81934;SDS011;71405;47.674;-2.050;2023-11-19T03:12:38;4.75;;;2.20;;
81934;SDS011;71405;47.674;-2.050;2023-11-19T03:15:07;5.93;;;2.47;;
81934;SDS011;71405;47.674;-2.050;2023-11-19T03:17:39;5.68;;;2.60;;
81934;SDS011;71405;47.674;-2.050;2023-11-19T03:20:07;5.22;;;2.30;;
81934;SDS011;71405;47.674;-2.050;2023-11-19T03:22:35;4.60;;;2.10;;
81934;SDS011;71405;47.674;-2.050;2023-11-19T03:25:02;4.93;;;2.17;;
81934;SDS011;71405;47.674;-2.050;2023-11-19T03:27:28;6.13;;;2.67;;
81934;SDS011;71405;47.674;-2.050;2023-11-19T03:29:54;5.10;;;2.30;;
81934;SDS011;71405;47.674;-2.050;2023-11-19T03:32:20;5.63;;;2.45;;
81934;SDS011;71405;47.674;-2.050;2023-11-19T03:34:46;6.10;;;2.20;;
81934;SDS011;71405;47.674;-2.050;2023-11-19T03:37:11;4.63;;;2.30;;
81934;SDS011;71405;47.674;-2.050;2023-11-19T03:39:40;5.47;;;2.25;;
81934;SDS011;71405;47.674;-2.050;2023-11-19T03:42:06;5.45;;;2.10;;
81934;SDS011;71405;47.674;-2.050;2023-11-19T03:44:32;4.68;;;2.28;;
81934;SDS011;71405;47.674;-2.050;2023-11-19T03:46:57;4.05;;;1.90;;
81934;SDS011;71405;47.674;-2.050;2023-11-19T03:49:23;5.38;;;2.30;;
81934;SDS011;71405;47.674;-2.050;2023-11-19T03:51:49;6.32;;;2.25;;
81934;SDS011;71405;47.674;-2.050;2023-11-19T03:54:14;6.00;;;2.30;;
81934;SDS011;71405;47.674;-2.050;2023-11-19T03:56:40;5.47;;;2.40;;
81934;SDS011;71405;47.674;-2.050;2023-11-19T03:59:06;4.18;;;2.13;;
81934;SDS011;71405;47.674;-2.050;2023-11-19T04:01:32;4.55;;;1.98;;
81934;SDS011;71405;47.674;-2.050;2023-11-19T04:03:57;5.15;;;2.00;;
81934;SDS011;71405;47.674;-2.050;2023-11-19T04:06:24;6.22;;;2.40;;
81934;SDS011;71405;47.674;-2.050;2023-11-19T04:08:50;5.78;;;2.17;;
81934;SDS011;71405;47.674;-2.050;2023-11-19T04:11:16;5.57;;;2.45;;
81934;SDS011;71405;47.674;-2.050;2023-11-19T04:13:41;4.65;;;2.00;;
81934;SDS011;71405;47.674;-2.050;2023-11-19T04:16:07;5.90;;;2.30;;
81934;SDS011;71405;47.674;-2.050;2023-11-19T04:18:33;5.55;;;2.13;;
81934;SDS011;71405;47.674;-2.050;2023-11-19T04:20:58;4.10;;;1.80;;
81934;SDS011;71405;47.674;-2.050;2023-11-19T04:23:24;3.85;;;1.85;;
81934;SDS011;71405;47.674;-2.050;2023-11-19T04:25:50;5.43;;;2.17;;
81934;SDS011;71405;47.674;-2.050;2023-11-19T04:28:16;6.78;;;2.30;;
81934;SDS011;71405;47.674;-2.050;2023-11-19T04:30:41;5.18;;;1.90;;
81934;SDS011;71405;47.674;-2.050;2023-11-19T04:33:07;4.50;;;2.00;;
81934;SDS011;71405;47.674;-2.050;2023-11-19T04:35:32;4.13;;;1.85;;
81934;SDS011;71405;47.674;-2.050;2023-11-19T04:37:58;5.18;;;2.00;;
81934;SDS011;71405;47.674;-2.050;2023-11-19T04:40:24;4.55;;;1.80;;
81934;SDS011;71405;47.674;-2.050;2023-11-19T04:42:50;5.13;;;1.80;;
81934;SDS011;71405;47.674;-2.050;2023-11-19T04:45:15;3.58;;;1.77;;
81934;SDS011;71405;47.674;-2.050;2023-11-19T04:47:42;5.22;;;2.03;;
81934;SDS011;71405;47.674;-2.050;2023-11-19T04:50:08;4.78;;;1.90;;
81934;SDS011;71405;47.674;-2.050;2023-11-19T04:52:39;5.55;;;2.17;;
81934;SDS011;71405;47.674;-2.050;2023-11-19T04:55:05;3.63;;;1.88;;
81934;SDS011;71405;47.674;-2.050;2023-11-19T04:57:31;3.42;;;1.50;;
81934;SDS011;71405;47.674;-2.050;2023-11-19T04:59:57;5.72;;;1.90;;
81934;SDS011;71405;47.674;-2.050;2023-11-19T05:02:23;5.18;;;2.17;;
81934;SDS011;71405;47.674;-2.050;2023-11-19T05:04:49;4.70;;;1.92;;
81934;SDS011;71405;47.674;-2.050;2023-11-19T05:07:15;4.53;;;1.52;;
81934;SDS011;71405;47.674;-2.050;2023-11-19T05:09:40;5.22;;;1.70;;
81934;SDS011;71405;47.674;-2.050;2023-11-19T05:12:08;6.32;;;1.95;;
81934;SDS011;71405;47.674;-2.050;2023-11-19T05:14:37;5.85;;;1.92;;
81934;SDS011;71405;47.674;-2.050;2023-11-19T05:17:03;5.30;;;1.98;;
81934;SDS011;71405;47.674;-2.050;2023-11-19T05:19:29;5.13;;;2.05;;
81934;SDS011;71405;47.674;-2.050;2023-11-19T05:21:54;4.47;;;1.95;;
81934;SDS011;71405;47.674;-2.050;2023-11-19T05:24:20;5.10;;;1.70;;
81934;SDS011;71405;47.674;-2.050;2023-11-19T05:26:45;5.00;;;2.00;;
81934;SDS011;71405;47.674;-2.050;2023-11-19T05:29:12;4.88;;;1.70;;
81934;SDS011;71405;47.674;-2.050;2023-11-19T05:31:37;2.80;;;1.50;;
81934;SDS011;71405;47.674;-2.050;2023-11-19T05:34:03;3.50;;;1.45;;
81934;SDS011;71405;47.674;-2.050;2023-11-19T05:36:29;3.85;;;1.52;;
81934;SDS011;71405;47.674;-2.050;2023-11-19T05:38:54;4.90;;;1.90;;
81934;SDS011;71405;47.674;-2.050;2023-11-19T05:41:20;4.72;;;1.90;;
81934;SDS011;71405;47.674;-2.050;2023-11-19T05:43:46;4.63;;;1.70;;
81934;SDS011;71405;47.674;-2.050;2023-11-19T05:46:12;4.05;;;1.60;;
81934;SDS011;71405;47.674;-2.050;2023-11-19T05:48:38;3.58;;;1.75;;
81934;SDS011;71405;47.674;-2.050;2023-11-19T05:51:04;3.95;;;1.70;;
81934;SDS011;71405;47.674;-2.050;2023-11-19T05:53:30;5.05;;;1.85;;
81934;SDS011;71405;47.674;-2.050;2023-11-19T05:55:56;4.70;;;1.95;;
81934;SDS011;71405;47.674;-2.050;2023-11-19T05:58:25;6.03;;;2.00;;
81934;SDS011;71405;47.674;-2.050;2023-11-19T06:00:53;4.53;;;1.80;;
81934;SDS011;71405;47.674;-2.050;2023-11-19T06:03:20;5.03;;;1.80;;
81934;SDS011;71405;47.674;-2.050;2023-11-19T06:05:47;4.80;;;1.42;;
81934;SDS011;71405;47.674;-2.050;2023-11-19T06:08:13;4.72;;;1.80;;
81934;SDS011;71405;47.674;-2.050;2023-11-19T06:10:43;4.95;;;1.67;;
81934;SDS011;71405;47.674;-2.050;2023-11-19T06:13:11;6.10;;;1.80;;
81934;SDS011;71405;47.674;-2.050;2023-11-19T06:15:40;4.40;;;1.90;;
81934;SDS011;71405;47.674;-2.050;2023-11-19T06:18:08;5.13;;;1.80;;
81934;SDS011;71405;47.674;-2.050;2023-11-19T06:20:36;5.75;;;1.65;;
81934;SDS011;71405;47.674;-2.050;2023-11-19T06:23:02;4.25;;;1.50;;
81934;SDS011;71405;47.674;-2.050;2023-11-19T06:25:28;4.70;;;1.83;;
81934;SDS011;71405;47.674;-2.050;2023-11-19T06:27:53;3.25;;;1.67;;
81934;SDS011;71405;47.674;-2.050;2023-11-19T06:30:19;4.55;;;1.70;;
81934;SDS011;71405;47.674;-2.050;2023-11-19T06:32:45;4.35;;;1.70;;
81934;SDS011;71405;47.674;-2.050;2023-11-19T06:35:11;4.13;;;1.55;;
81934;SDS011;71405;47.674;-2.050;2023-11-19T06:37:39;4.45;;;1.60;;
81934;SDS011;71405;47.674;-2.050;2023-11-19T06:40:05;4.90;;;1.73;;
81934;SDS011;71405;47.674;-2.050;2023-11-19T06:42:31;3.92;;;1.73;;
81934;SDS011;71405;47.674;-2.050;2023-11-19T06:44:57;4.80;;;2.05;;
81934;SDS011;71405;47.674;-2.050;2023-11-19T06:47:26;5.03;;;1.63;;
81934;SDS011;71405;47.674;-2.050;2023-11-19T06:49:53;4.05;;;1.52;;
81934;SDS011;71405;47.674;-2.050;2023-11-19T06:52:19;4.88;;;1.70;;
81934;SDS011;71405;47.674;-2.050;2023-11-19T06:54:44;5.18;;;1.77;;
81934;SDS011;71405;47.674;-2.050;2023-11-19T06:57:10;5.80;;;1.67;;
81934;SDS011;71405;47.674;-2.050;2023-11-19T06:59:36;4.82;;;1.50;;
81934;SDS011;71405;47.674;-2.050;2023-11-19T07:02:02;4.53;;;1.70;;
81934;SDS011;71405;47.674;-2.050;2023-11-19T07:04:29;4.82;;;1.60;;
81934;SDS011;71405;47.674;-2.050;2023-11-19T07:06:55;4.97;;;1.75;;
81934;SDS011;71405;47.674;-2.050;2023-11-19T07:09:21;3.97;;;1.58;;
81934;SDS011;71405;47.674;-2.050;2023-11-19T07:11:48;4.53;;;1.65;;
81934;SDS011;71405;47.674;-2.050;2023-11-19T07:14:17;4.07;;;1.55;;
81934;SDS011;71405;47.674;-2.050;2023-11-19T07:16:43;4.13;;;1.65;;
81934;SDS011;71405;47.674;-2.050;2023-11-19T07:19:11;4.60;;;1.80;;
81934;SDS011;71405;47.674;-2.050;2023-11-19T07:21:39;5.28;;;1.88;;
81934;SDS011;71405;47.674;-2.050;2023-11-19T07:24:09;4.80;;;1.85;;
81934;SDS011;71405;47.674;-2.050;2023-11-19T07:26:35;5.90;;;2.05;;
81934;SDS011;71405;47.674;-2.050;2023-11-19T07:29:02;5.43;;;1.63;;
81934;SDS011;71405;47.674;-2.050;2023-11-19T07:31:28;4.88;;;1.77;;
81934;SDS011;71405;47.674;-2.050;2023-11-19T07:33:53;4.18;;;1.48;;
81934;SDS011;71405;47.674;-2.050;2023-11-19T07:36:19;5.38;;;1.90;;
81934;SDS011;71405;47.674;-2.050;2023-11-19T07:38:45;4.55;;;1.70;;
81934;SDS011;71405;47.674;-2.050;2023-11-19T07:41:12;4.32;;;1.75;;
81934;SDS011;71405;47.674;-2.050;2023-11-19T07:43:43;4.43;;;1.50;;
81934;SDS011;71405;47.674;-2.050;2023-11-19T07:46:11;4.28;;;1.60;;
81934;SDS011;71405;47.674;-2.050;2023-11-19T07:48:38;4.72;;;1.63;;
81934;SDS011;71405;47.674;-2.050;2023-11-19T07:51:04;4.93;;;1.65;;
81934;SDS011;71405;47.674;-2.050;2023-11-19T07:53:30;6.03;;;1.80;;
81934;SDS011;71405;47.674;-2.050;2023-11-19T07:55:57;4.63;;;1.55;;
81934;SDS011;71405;47.674;-2.050;2023-11-19T07:58:24;3.80;;;1.70;;
81934;SDS011;71405;47.674;-2.050;2023-11-19T08:00:50;3.38;;;1.35;;
81934;SDS011;71405;47.674;-2.050;2023-11-19T08:03:17;4.30;;;1.60;;
81934;SDS011;71405;47.674;-2.050;2023-11-19T08:05:44;3.60;;;1.52;;
81934;SDS011;71405;47.674;-2.050;2023-11-19T08:08:11;5.38;;;1.60;;
81934;SDS011;71405;47.674;-2.050;2023-11-19T08:10:37;4.75;;;1.70;;
81934;SDS011;71405;47.674;-2.050;2023-11-19T08:13:02;4.10;;;1.30;;
81934;SDS011;71405;47.674;-2.050;2023-11-19T08:15:28;4.30;;;1.60;;
81934;SDS011;71405;47.674;-2.050;2023-11-19T08:17:54;4.05;;;1.55;;
81934;SDS011;71405;47.674;-2.050;2023-11-19T08:20:20;4.10;;;1.60;;
81934;SDS011;71405;47.674;-2.050;2023-11-19T08:22:45;3.90;;;1.55;;
81934;SDS011;71405;47.674;-2.050;2023-11-19T08:25:11;4.03;;;1.52;;
81934;SDS011;71405;47.674;-2.050;2023-11-19T08:27:37;5.25;;;1.70;;
81934;SDS011;71405;47.674;-2.050;2023-11-19T08:30:03;5.53;;;1.52;;
81934;SDS011;71405;47.674;-2.050;2023-11-19T08:32:31;3.55;;;1.40;;
81934;SDS011;71405;47.674;-2.050;2023-11-19T08:34:56;5.28;;;1.52;;
81934;SDS011;71405;47.674;-2.050;2023-11-19T08:37:22;3.63;;;1.45;;
81934;SDS011;71405;47.674;-2.050;2023-11-19T08:39:48;3.88;;;1.50;;
81934;SDS011;71405;47.674;-2.050;2023-11-19T08:42:14;5.93;;;1.70;;
81934;SDS011;71405;47.674;-2.050;2023-11-19T08:44:41;4.70;;;1.67;;
81934;SDS011;71405;47.674;-2.050;2023-11-19T08:47:08;5.05;;;1.75;;
81934;SDS011;71405;47.674;-2.050;2023-11-19T08:49:37;4.78;;;1.83;;
81934;SDS011;71405;47.674;-2.050;2023-11-19T08:52:04;5.35;;;1.95;;
81934;SDS011;71405;47.674;-2.050;2023-11-19T08:54:30;2.67;;;1.17;;
81934;SDS011;71405;47.674;-2.050;2023-11-19T08:56:56;4.40;;;1.73;;
81934;SDS011;71405;47.674;-2.050;2023-11-19T08:59:21;3.28;;;1.33;;
81934;SDS011;71405;47.674;-2.050;2023-11-19T09:01:47;4.85;;;1.65;;
81934;SDS011;71405;47.674;-2.050;2023-11-19T09:04:12;4.28;;;1.52;;
81934;SDS011;71405;47.674;-2.050;2023-11-19T09:06:39;4.18;;;1.83;;
81934;SDS011;71405;47.674;-2.050;2023-11-19T09:09:05;5.28;;;1.67;;
81934;SDS011;71405;47.674;-2.050;2023-11-19T09:11:31;5.00;;;1.63;;
81934;SDS011;71405;47.674;-2.050;2023-11-19T09:13:57;4.97;;;1.80;;
81934;SDS011;71405;47.674;-2.050;2023-11-19T09:16:22;4.15;;;1.55;;
81934;SDS011;71405;47.674;-2.050;2023-11-19T09:18:49;3.88;;;1.60;;
81934;SDS011;71405;47.674;-2.050;2023-11-19T09:21:15;3.80;;;1.50;;
81934;SDS011;71405;47.674;-2.050;2023-11-19T09:23:40;4.85;;;1.52;;
81934;SDS011;71405;47.674;-2.050;2023-11-19T09:26:06;3.72;;;1.42;;
81934;SDS011;71405;47.674;-2.050;2023-11-19T09:28:35;2.60;;;1.23;;
81934;SDS011;71405;47.674;-2.050;2023-11-19T09:31:00;3.97;;;1.40;;
81934;SDS011;71405;47.674;-2.050;2023-11-19T09:33:29;4.13;;;1.67;;
81934;SDS011;71405;47.674;-2.050;2023-11-19T09:35:55;7.95;;;1.60;;
81934;SDS011;71405;47.674;-2.050;2023-11-19T09:38:21;4.75;;;1.65;;
81934;SDS011;71405;47.674;-2.050;2023-11-19T09:40:46;4.60;;;1.67;;
81934;SDS011;71405;47.674;-2.050;2023-11-19T09:43:12;6.63;;;1.98;;
81934;SDS011;71405;47.674;-2.050;2023-11-19T09:45:49;4.45;;;1.60;;
81934;SDS011;71405;47.674;-2.050;2023-11-19T09:48:19;5.40;;;1.65;;
81934;SDS011;71405;47.674;-2.050;2023-11-19T09:50:48;7.28;;;2.10;;
81934;SDS011;71405;47.674;-2.050;2023-11-19T09:53:14;4.63;;;1.45;;
81934;SDS011;71405;47.674;-2.050;2023-11-19T09:55:40;4.75;;;1.52;;
81934;SDS011;71405;47.674;-2.050;2023-11-19T09:58:06;6.47;;;1.80;;
81934;SDS011;71405;47.674;-2.050;2023-11-19T10:00:32;5.45;;;1.55;;
81934;SDS011;71405;47.674;-2.050;2023-11-19T10:02:59;7.05;;;2.13;;
81934;SDS011;71405;47.674;-2.050;2023-11-19T10:05:25;4.82;;;1.52;;
81934;SDS011;71405;47.674;-2.050;2023-11-19T10:07:51;5.43;;;1.95;;
81934;SDS011;71405;47.674;-2.050;2023-11-19T10:10:17;5.43;;;1.60;;
81934;SDS011;71405;47.674;-2.050;2023-11-19T10:12:45;5.45;;;1.70;;
81934;SDS011;71405;47.674;-2.050;2023-11-19T10:15:16;4.75;;;1.52;;
81934;SDS011;71405;47.674;-2.050;2023-11-19T10:17:46;4.75;;;1.48;;
81934;SDS011;71405;47.674;-2.050;2023-11-19T10:20:11;4.97;;;1.80;;
81934;SDS011;71405;47.674;-2.050;2023-11-19T10:22:37;6.53;;;1.90;;
81934;SDS011;71405;47.674;-2.050;2023-11-19T10:25:03;5.88;;;1.75;;
81934;SDS011;71405;47.674;-2.050;2023-11-19T10:27:30;6.70;;;1.95;;
81934;SDS011;71405;47.674;-2.050;2023-11-19T10:29:58;3.70;;;1.50;;
81934;SDS011;71405;47.674;-2.050;2023-11-19T10:32:25;5.78;;;1.65;;
81934;SDS011;71405;47.674;-2.050;2023-11-19T10:34:50;4.50;;;1.60;;
81934;SDS011;71405;47.674;-2.050;2023-11-19T10:37:37;3.67;;;1.52;;
81934;SDS011;71405;47.674;-2.050;2023-11-19T10:40:02;6.05;;;1.83;;
81934;SDS011;71405;47.674;-2.050;2023-11-19T10:42:30;4.95;;;1.65;;
81934;SDS011;71405;47.674;-2.050;2023-11-19T10:44:56;7.43;;;2.30;;
81934;SDS011;71405;47.674;-2.050;2023-11-19T10:47:22;6.40;;;2.05;;
81934;SDS011;71405;47.674;-2.050;2023-11-19T10:49:48;4.97;;;1.70;;
81934;SDS011;71405;47.674;-2.050;2023-11-19T10:52:17;6.10;;;2.00;;
81934;SDS011;71405;47.674;-2.050;2023-11-19T10:54:45;7.75;;;2.63;;
81934;SDS011;71405;47.674;-2.050;2023-11-19T10:57:16;10.60;;;1.92;;
81934;SDS011;71405;47.674;-2.050;2023-11-19T10:59:46;11.73;;;6.93;;
81934;SDS011;71405;47.674;-2.050;2023-11-19T11:02:15;5.97;;;1.88;;
81934;SDS011;71405;47.674;-2.050;2023-11-19T11:04:46;8.05;;;2.65;;
81934;SDS011;71405;47.674;-2.050;2023-11-19T11:07:15;5.85;;;1.80;;
81934;SDS011;71405;47.674;-2.050;2023-11-19T11:09:44;5.88;;;1.70;;
81934;SDS011;71405;47.674;-2.050;2023-11-19T11:12:11;6.50;;;2.15;;
81934;SDS011;71405;47.674;-2.050;2023-11-19T11:14:38;7.30;;;2.22;;
81934;SDS011;71405;47.674;-2.050;2023-11-19T11:17:05;7.80;;;2.88;;
81934;SDS011;71405;47.674;-2.050;2023-11-19T11:19:33;6.95;;;1.98;;
81934;SDS011;71405;47.674;-2.050;2023-11-19T11:21:59;8.45;;;2.67;;
81934;SDS011;71405;47.674;-2.050;2023-11-19T11:37:39;5.88;;;1.98;;
81934;SDS011;71405;47.674;-2.050;2023-11-19T11:40:16;6.50;;;1.98;;
81934;SDS011;71405;47.674;-2.050;2023-11-19T11:42:43;5.43;;;1.90;;
81934;SDS011;71405;47.674;-2.050;2023-11-19T11:45:10;11.05;;;5.80;;
81934;SDS011;71405;47.674;-2.050;2023-11-19T11:50:11;7.07;;;2.17;;
81934;SDS011;71405;47.674;-2.050;2023-11-19T11:55:27;7.70;;;2.30;;
81934;SDS011;71405;47.674;-2.050;2023-11-19T11:58:01;12.05;;;5.93;;
81934;SDS011;71405;47.674;-2.050;2023-11-19T12:00:29;9.70;;;2.45;;
81934;SDS011;71405;47.674;-2.050;2023-11-19T12:02:56;5.82;;;1.77;;
81934;SDS011;71405;47.674;-2.050;2023-11-19T12:05:26;6.07;;;1.90;;
81934;SDS011;71405;47.674;-2.050;2023-11-19T12:10:24;7.50;;;2.15;;
81934;SDS011;71405;47.674;-2.050;2023-11-19T12:12:52;6.88;;;2.05;;
81934;SDS011;71405;47.674;-2.050;2023-11-19T12:15:18;10.13;;;5.53;;
81934;SDS011;71405;47.674;-2.050;2023-11-19T12:17:50;5.47;;;1.83;;
81934;SDS011;71405;47.674;-2.050;2023-11-19T12:20:19;7.05;;;2.22;;
81934;SDS011;71405;47.674;-2.050;2023-11-19T12:22:47;8.40;;;2.30;;
81934;SDS011;71405;47.674;-2.050;2023-11-19T12:25:14;7.32;;;1.92;;
81934;SDS011;71405;47.674;-2.050;2023-11-19T12:27:47;3.88;;;1.52;;
81934;SDS011;71405;47.674;-2.050;2023-11-19T12:30:23;6.20;;;1.90;;
81934;SDS011;71405;47.674;-2.050;2023-11-19T12:32:49;6.72;;;2.13;;
81934;SDS011;71405;47.674;-2.050;2023-11-19T12:35:15;5.47;;;1.83;;
81934;SDS011;71405;47.674;-2.050;2023-11-19T12:37:42;7.03;;;1.92;;
81934;SDS011;71405;47.674;-2.050;2023-11-19T12:40:13;5.43;;;1.70;;
81934;SDS011;71405;47.674;-2.050;2023-11-19T12:42:40;5.45;;;1.77;;
81934;SDS011;71405;47.674;-2.050;2023-11-19T12:45:06;7.15;;;1.77;;
81934;SDS011;71405;47.674;-2.050;2023-11-19T12:47:35;7.53;;;1.90;;
81934;SDS011;71405;47.674;-2.050;2023-11-19T12:50:02;6.93;;;1.88;;
81934;SDS011;71405;47.674;-2.050;2023-11-19T12:52:28;7.53;;;2.22;;
81934;SDS011;71405;47.674;-2.050;2023-11-19T12:54:55;7.47;;;1.88;;
81934;SDS011;71405;47.674;-2.050;2023-11-19T12:57:35;6.90;;;2.05;;
81934;SDS011;71405;47.674;-2.050;2023-11-19T13:00:02;11.27;;;2.38;;
81934;SDS011;71405;47.674;-2.050;2023-11-19T13:05:20;9.50;;;2.75;;
81934;SDS011;71405;47.674;-2.050;2023-11-19T13:07:46;9.02;;;2.50;;
81934;SDS011;71405;47.674;-2.050;2023-11-19T13:10:12;9.68;;;2.70;;
81934;SDS011;71405;47.674;-2.050;2023-11-19T13:12:38;11.50;;;3.28;;
81934;SDS011;71405;47.674;-2.050;2023-11-19T13:15:04;12.68;;;3.72;;
81934;SDS011;71405;47.674;-2.050;2023-11-19T13:17:30;9.63;;;3.30;;
81934;SDS011;71405;47.674;-2.050;2023-11-19T13:19:56;11.10;;;3.70;;
81934;SDS011;71405;47.674;-2.050;2023-11-19T13:22:22;11.00;;;3.47;;
81934;SDS011;71405;47.674;-2.050;2023-11-19T13:24:48;10.82;;;3.50;;
81934;SDS011;71405;47.674;-2.050;2023-11-19T13:27:13;11.60;;;3.63;;
81934;SDS011;71405;47.674;-2.050;2023-11-19T13:29:39;11.00;;;2.90;;
81934;SDS011;71405;47.674;-2.050;2023-11-19T13:32:05;11.00;;;3.13;;
81934;SDS011;71405;47.674;-2.050;2023-11-19T13:34:31;10.60;;;3.63;;
81934;SDS011;71405;47.674;-2.050;2023-11-19T13:36:56;8.38;;;2.72;;
81934;SDS011;71405;47.674;-2.050;2023-11-19T13:39:22;10.88;;;2.80;;
81934;SDS011;71405;47.674;-2.050;2023-11-19T13:41:48;9.50;;;2.60;;
81934;SDS011;71405;47.674;-2.050;2023-11-19T13:44:15;10.30;;;2.50;;
81934;SDS011;71405;47.674;-2.050;2023-11-19T13:46:43;10.23;;;2.80;;
81934;SDS011;71405;47.674;-2.050;2023-11-19T13:49:09;8.88;;;3.08;;
81934;SDS011;71405;47.674;-2.050;2023-11-19T13:51:35;11.18;;;3.78;;
81934;SDS011;71405;47.674;-2.050;2023-11-19T13:54:01;10.38;;;3.10;;
81934;SDS011;71405;47.674;-2.050;2023-11-19T13:56:26;8.02;;;2.50;;
81934;SDS011;71405;47.674;-2.050;2023-11-19T13:58:52;9.80;;;2.63;;
81934;SDS011;71405;47.674;-2.050;2023-11-19T14:01:18;9.63;;;2.75;;
81934;SDS011;71405;47.674;-2.050;2023-11-19T14:03:44;9.63;;;2.70;;
81934;SDS011;71405;47.674;-2.050;2023-11-19T14:06:10;11.60;;;2.60;;
81934;SDS011;71405;47.674;-2.050;2023-11-19T14:08:37;8.88;;;2.67;;
81934;SDS011;71405;47.674;-2.050;2023-11-19T14:11:03;8.85;;;2.58;;
81934;SDS011;71405;47.674;-2.050;2023-11-19T14:13:30;9.32;;;2.40;;
81934;SDS011;71405;47.674;-2.050;2023-11-19T14:15:56;6.43;;;2.25;;
81934;SDS011;71405;47.674;-2.050;2023-11-19T14:18:21;9.82;;;2.70;;
81934;SDS011;71405;47.674;-2.050;2023-11-19T14:20:48;6.47;;;2.10;;
81934;SDS011;71405;47.674;-2.050;2023-11-19T14:23:13;7.95;;;2.53;;
81934;SDS011;71405;47.674;-2.050;2023-11-19T14:25:39;6.10;;;2.00;;
81934;SDS011;71405;47.674;-2.050;2023-11-19T14:28:04;8.18;;;2.25;;
81934;SDS011;71405;47.674;-2.050;2023-11-19T14:30:30;8.38;;;2.58;;
81934;SDS011;71405;47.674;-2.050;2023-11-19T14:32:56;8.82;;;2.40;;
81934;SDS011;71405;47.674;-2.050;2023-11-19T14:35:21;7.05;;;2.60;;
81934;SDS011;71405;47.674;-2.050;2023-11-19T14:37:47;7.30;;;2.25;;
81934;SDS011;71405;47.674;-2.050;2023-11-19T14:40:14;9.30;;;2.85;;
81934;SDS011;71405;47.674;-2.050;2023-11-19T14:42:39;10.35;;;2.00;;
81934;SDS011;71405;47.674;-2.050;2023-11-19T14:45:05;9.50;;;2.47;;
81934;SDS011;71405;47.674;-2.050;2023-11-19T14:47:32;7.25;;;2.10;;
81934;SDS011;71405;47.674;-2.050;2023-11-19T14:49:57;9.25;;;2.60;;
81934;SDS011;71405;47.674;-2.050;2023-11-19T14:52:23;7.63;;;2.25;;
81934;SDS011;71405;47.674;-2.050;2023-11-19T14:54:49;8.90;;;2.45;;
81934;SDS011;71405;47.674;-2.050;2023-11-19T14:57:16;25.65;;;23.17;;